sensor_id;sensor_type;location;lat;lon;timestamp;P1;durP1;ratioP1;P2;durP2;ratioP2
19535;SDS011;9913;51.168;4.124;2022-09-13T00:01:08;4.82;;;2.83;;
19535;SDS011;9913;51.168;4.124;2022-09-13T00:03:38;4.28;;;2.42;;
19535;SDS011;9913;51.168;4.124;2022-09-13T00:06:07;4.40;;;2.92;;
19535;SDS011;9913;51.168;4.124;2022-09-13T00:08:37;4.57;;;2.75;;
19535;SDS011;9913;51.168;4.124;2022-09-13T00:11:06;4.82;;;3.42;;
19535;SDS011;9913;51.168;4.124;2022-09-13T00:13:34;3.67;;;2.97;;
19535;SDS011;9913;51.168;4.124;2022-09-13T00:16:02;5.38;;;3.00;;
19535;SDS011;9913;51.168;4.124;2022-09-13T00:18:32;6.45;;;3.47;;
19535;SDS011;9913;51.168;4.124;2022-09-13T00:21:06;4.57;;;3.17;;
19535;SDS011;9913;51.168;4.124;2022-09-13T00:23:36;5.20;;;3.22;;
19535;SDS011;9913;51.168;4.124;2022-09-13T00:26:06;5.05;;;3.13;;
19535;SDS011;9913;51.168;4.124;2022-09-13T00:28:36;4.53;;;2.78;;
19535;SDS011;9913;51.168;4.124;2022-09-13T00:31:05;3.80;;;3.17;;
19535;SDS011;9913;51.168;4.124;2022-09-13T00:33:35;3.80;;;2.72;;
19535;SDS011;9913;51.168;4.124;2022-09-13T00:36:06;4.15;;;2.83;;
19535;SDS011;9913;51.168;4.124;2022-09-13T00:38:36;4.65;;;2.95;;
19535;SDS011;9913;51.168;4.124;2022-09-13T00:41:06;5.00;;;3.45;;
19535;SDS011;9913;51.168;4.124;2022-09-13T00:43:39;4.53;;;3.40;;
19535;SDS011;9913;51.168;4.124;2022-09-13T00:46:10;6.35;;;3.85;;
19535;SDS011;9913;51.168;4.124;2022-09-13T00:48:44;6.65;;;3.90;;
19535;SDS011;9913;51.168;4.124;2022-09-13T00:51:15;7.05;;;3.60;;
19535;SDS011;9913;51.168;4.124;2022-09-13T00:53:45;6.32;;;3.50;;
19535;SDS011;9913;51.168;4.124;2022-09-13T00:56:18;4.75;;;3.35;;
19535;SDS011;9913;51.168;4.124;2022-09-13T00:58:49;5.15;;;3.53;;
19535;SDS011;9913;51.168;4.124;2022-09-13T01:01:25;5.13;;;3.22;;
19535;SDS011;9913;51.168;4.124;2022-09-13T01:03:58;6.88;;;3.67;;
19535;SDS011;9913;51.168;4.124;2022-09-13T01:06:30;4.65;;;3.72;;
19535;SDS011;9913;51.168;4.124;2022-09-13T01:09:02;5.30;;;3.30;;
19535;SDS011;9913;51.168;4.124;2022-09-13T01:11:34;5.38;;;3.10;;
19535;SDS011;9913;51.168;4.124;2022-09-13T01:14:07;5.45;;;3.40;;
19535;SDS011;9913;51.168;4.124;2022-09-13T01:16:36;5.60;;;3.90;;
19535;SDS011;9913;51.168;4.124;2022-09-13T01:19:05;6.07;;;3.55;;
19535;SDS011;9913;51.168;4.124;2022-09-13T01:25:09;4.28;;;3.17;;
19535;SDS011;9913;51.168;4.124;2022-09-13T01:27:53;6.25;;;3.20;;
19535;SDS011;9913;51.168;4.124;2022-09-13T01:30:37;6.25;;;3.63;;
19535;SDS011;9913;51.168;4.124;2022-09-13T01:33:13;4.07;;;3.03;;
19535;SDS011;9913;51.168;4.124;2022-09-13T01:36:06;7.15;;;3.40;;
19535;SDS011;9913;51.168;4.124;2022-09-13T01:39:00;5.10;;;3.15;;
19535;SDS011;9913;51.168;4.124;2022-09-13T01:41:35;6.82;;;3.75;;
19535;SDS011;9913;51.168;4.124;2022-09-13T01:44:26;5.57;;;3.72;;
19535;SDS011;9913;51.168;4.124;2022-09-13T01:47:04;5.45;;;3.10;;
19535;SDS011;9913;51.168;4.124;2022-09-13T01:49:42;6.70;;;3.42;;
19535;SDS011;9913;51.168;4.124;2022-09-13T01:52:16;5.28;;;3.40;;
19535;SDS011;9913;51.168;4.124;2022-09-13T01:54:52;5.75;;;3.22;;
19535;SDS011;9913;51.168;4.124;2022-09-13T01:57:29;6.47;;;3.78;;
19535;SDS011;9913;51.168;4.124;2022-09-13T02:00:02;5.93;;;3.25;;
19535;SDS011;9913;51.168;4.124;2022-09-13T02:02:40;4.38;;;3.50;;
19535;SDS011;9913;51.168;4.124;2022-09-13T02:05:13;6.60;;;3.97;;
19535;SDS011;9913;51.168;4.124;2022-09-13T02:07:49;7.70;;;3.75;;
19535;SDS011;9913;51.168;4.124;2022-09-13T02:10:26;5.47;;;3.05;;
19535;SDS011;9913;51.168;4.124;2022-09-13T02:13:00;4.80;;;3.30;;
19535;SDS011;9913;51.168;4.124;2022-09-13T02:15:33;5.18;;;3.83;;
19535;SDS011;9913;51.168;4.124;2022-09-13T02:18:08;5.70;;;3.35;;
19535;SDS011;9913;51.168;4.124;2022-09-13T02:20:42;6.50;;;3.45;;
19535;SDS011;9913;51.168;4.124;2022-09-13T02:23:13;7.63;;;3.40;;
19535;SDS011;9913;51.168;4.124;2022-09-13T02:25:44;4.95;;;3.50;;
19535;SDS011;9913;51.168;4.124;2022-09-13T02:28:14;4.50;;;3.60;;
19535;SDS011;9913;51.168;4.124;2022-09-13T02:30:48;5.35;;;3.33;;
19535;SDS011;9913;51.168;4.124;2022-09-13T02:33:22;5.70;;;3.35;;
19535;SDS011;9913;51.168;4.124;2022-09-13T02:35:54;5.18;;;3.13;;
19535;SDS011;9913;51.168;4.124;2022-09-13T02:38:26;5.68;;;3.40;;
19535;SDS011;9913;51.168;4.124;2022-09-13T02:40:59;4.45;;;3.13;;
19535;SDS011;9913;51.168;4.124;2022-09-13T02:43:34;5.60;;;3.33;;
19535;SDS011;9913;51.168;4.124;2022-09-13T02:46:10;5.10;;;3.60;;
19535;SDS011;9913;51.168;4.124;2022-09-13T02:48:53;4.40;;;2.70;;
19535;SDS011;9913;51.168;4.124;2022-09-13T02:51:29;7.15;;;3.92;;
19535;SDS011;9913;51.168;4.124;2022-09-13T02:54:04;4.68;;;3.35;;
19535;SDS011;9913;51.168;4.124;2022-09-13T02:56:40;5.53;;;3.25;;
19535;SDS011;9913;51.168;4.124;2022-09-13T02:59:16;5.35;;;3.35;;
19535;SDS011;9913;51.168;4.124;2022-09-13T03:01:46;6.03;;;3.10;;
19535;SDS011;9913;51.168;4.124;2022-09-13T03:04:20;5.68;;;3.22;;
19535;SDS011;9913;51.168;4.124;2022-09-13T03:06:49;4.85;;;3.33;;
19535;SDS011;9913;51.168;4.124;2022-09-13T03:09:17;4.55;;;3.22;;
19535;SDS011;9913;51.168;4.124;2022-09-13T03:11:55;4.65;;;2.95;;
19535;SDS011;9913;51.168;4.124;2022-09-13T03:14:38;4.80;;;3.15;;
19535;SDS011;9913;51.168;4.124;2022-09-13T03:17:13;5.35;;;3.15;;
19535;SDS011;9913;51.168;4.124;2022-09-13T03:19:55;4.65;;;3.00;;
19535;SDS011;9913;51.168;4.124;2022-09-13T03:22:51;4.57;;;2.70;;
19535;SDS011;9913;51.168;4.124;2022-09-13T03:25:42;6.05;;;2.83;;
19535;SDS011;9913;51.168;4.124;2022-09-13T03:28:26;3.47;;;2.80;;
19535;SDS011;9913;51.168;4.124;2022-09-13T03:31:02;6.18;;;3.38;;
19535;SDS011;9913;51.168;4.124;2022-09-13T03:33:37;5.80;;;2.90;;
19535;SDS011;9913;51.168;4.124;2022-09-13T03:36:15;4.13;;;2.70;;
19535;SDS011;9913;51.168;4.124;2022-09-13T03:38:50;4.13;;;2.78;;
19535;SDS011;9913;51.168;4.124;2022-09-13T03:41:24;5.45;;;2.67;;
19535;SDS011;9913;51.168;4.124;2022-09-13T03:43:57;5.45;;;3.25;;
19535;SDS011;9913;51.168;4.124;2022-09-13T03:46:28;4.90;;;2.90;;
19535;SDS011;9913;51.168;4.124;2022-09-13T03:49:00;4.72;;;2.80;;
19535;SDS011;9913;51.168;4.124;2022-09-13T03:51:33;3.95;;;2.90;;
19535;SDS011;9913;51.168;4.124;2022-09-13T03:54:03;4.10;;;2.72;;
19535;SDS011;9913;51.168;4.124;2022-09-13T03:56:34;5.35;;;3.20;;
19535;SDS011;9913;51.168;4.124;2022-09-13T03:59:02;6.25;;;3.20;;
19535;SDS011;9913;51.168;4.124;2022-09-13T04:01:31;4.43;;;2.90;;
19535;SDS011;9913;51.168;4.124;2022-09-13T04:03:59;5.05;;;3.20;;
19535;SDS011;9913;51.168;4.124;2022-09-13T04:06:27;5.03;;;3.10;;
19535;SDS011;9913;51.168;4.124;2022-09-13T04:08:57;4.10;;;2.72;;
19535;SDS011;9913;51.168;4.124;2022-09-13T04:11:26;6.70;;;3.03;;
19535;SDS011;9913;51.168;4.124;2022-09-13T04:13:57;4.38;;;3.00;;
19535;SDS011;9913;51.168;4.124;2022-09-13T04:16:26;3.25;;;2.70;;
19535;SDS011;9913;51.168;4.124;2022-09-13T04:18:54;5.50;;;3.53;;
19535;SDS011;9913;51.168;4.124;2022-09-13T04:21:22;5.00;;;3.20;;
19535;SDS011;9913;51.168;4.124;2022-09-13T04:23:51;4.30;;;3.10;;
19535;SDS011;9913;51.168;4.124;2022-09-13T04:26:20;5.10;;;3.13;;
19535;SDS011;9913;51.168;4.124;2022-09-13T04:28:49;4.78;;;2.72;;
19535;SDS011;9913;51.168;4.124;2022-09-13T04:31:19;4.35;;;3.22;;
19535;SDS011;9913;51.168;4.124;2022-09-13T04:33:48;5.82;;;3.38;;
19535;SDS011;9913;51.168;4.124;2022-09-13T04:36:16;4.63;;;3.33;;
19535;SDS011;9913;51.168;4.124;2022-09-13T04:38:46;6.32;;;3.03;;
19535;SDS011;9913;51.168;4.124;2022-09-13T04:41:14;4.50;;;3.13;;
19535;SDS011;9913;51.168;4.124;2022-09-13T04:43:47;4.78;;;3.40;;
19535;SDS011;9913;51.168;4.124;2022-09-13T04:46:16;6.68;;;3.15;;
19535;SDS011;9913;51.168;4.124;2022-09-13T04:48:47;4.35;;;3.17;;
19535;SDS011;9913;51.168;4.124;2022-09-13T04:51:16;4.40;;;3.05;;
19535;SDS011;9913;51.168;4.124;2022-09-13T04:53:45;6.63;;;3.40;;
19535;SDS011;9913;51.168;4.124;2022-09-13T04:56:13;6.28;;;3.35;;
19535;SDS011;9913;51.168;4.124;2022-09-13T04:58:42;5.22;;;3.08;;
19535;SDS011;9913;51.168;4.124;2022-09-13T05:01:11;5.22;;;3.40;;
19535;SDS011;9913;51.168;4.124;2022-09-13T05:03:40;5.20;;;3.40;;
19535;SDS011;9913;51.168;4.124;2022-09-13T05:06:09;5.40;;;3.70;;
19535;SDS011;9913;51.168;4.124;2022-09-13T05:08:39;6.75;;;3.33;;
19535;SDS011;9913;51.168;4.124;2022-09-13T05:11:08;5.55;;;3.20;;
19535;SDS011;9913;51.168;4.124;2022-09-13T05:13:36;5.65;;;3.38;;
19535;SDS011;9913;51.168;4.124;2022-09-13T05:16:05;7.10;;;3.83;;
19535;SDS011;9913;51.168;4.124;2022-09-13T05:18:36;10.05;;;3.55;;
19535;SDS011;9913;51.168;4.124;2022-09-13T05:21:11;5.20;;;3.13;;
19535;SDS011;9913;51.168;4.124;2022-09-13T05:23:39;3.65;;;2.60;;
19535;SDS011;9913;51.168;4.124;2022-09-13T05:26:07;5.18;;;3.08;;
19535;SDS011;9913;51.168;4.124;2022-09-13T05:28:36;4.57;;;3.17;;
19535;SDS011;9913;51.168;4.124;2022-09-13T05:31:05;5.40;;;3.00;;
19535;SDS011;9913;51.168;4.124;2022-09-13T05:33:36;6.28;;;3.25;;
19535;SDS011;9913;51.168;4.124;2022-09-13T05:36:05;5.95;;;3.38;;
19535;SDS011;9913;51.168;4.124;2022-09-13T05:38:34;4.80;;;3.58;;
19535;SDS011;9913;51.168;4.124;2022-09-13T05:41:03;5.35;;;3.08;;
19535;SDS011;9913;51.168;4.124;2022-09-13T05:43:32;4.25;;;3.20;;
19535;SDS011;9913;51.168;4.124;2022-09-13T05:46:02;5.45;;;3.97;;
19535;SDS011;9913;51.168;4.124;2022-09-13T05:48:33;5.63;;;3.40;;
19535;SDS011;9913;51.168;4.124;2022-09-13T05:51:06;5.13;;;3.78;;
19535;SDS011;9913;51.168;4.124;2022-09-13T05:53:36;4.85;;;3.75;;
19535;SDS011;9913;51.168;4.124;2022-09-13T05:56:08;6.13;;;3.65;;
19535;SDS011;9913;51.168;4.124;2022-09-13T05:58:43;4.93;;;3.78;;
19535;SDS011;9913;51.168;4.124;2022-09-13T06:01:14;6.00;;;3.55;;
19535;SDS011;9913;51.168;4.124;2022-09-13T06:03:45;4.70;;;3.45;;
19535;SDS011;9913;51.168;4.124;2022-09-13T06:06:16;6.30;;;3.35;;
19535;SDS011;9913;51.168;4.124;2022-09-13T06:08:50;5.65;;;3.63;;
19535;SDS011;9913;51.168;4.124;2022-09-13T06:11:19;7.70;;;3.63;;
19535;SDS011;9913;51.168;4.124;2022-09-13T06:13:47;7.45;;;3.65;;
19535;SDS011;9913;51.168;4.124;2022-09-13T06:16:16;6.78;;;3.30;;
19535;SDS011;9913;51.168;4.124;2022-09-13T06:18:44;6.03;;;3.55;;
19535;SDS011;9913;51.168;4.124;2022-09-13T06:21:13;4.97;;;3.50;;
19535;SDS011;9913;51.168;4.124;2022-09-13T06:23:45;5.82;;;3.72;;
19535;SDS011;9913;51.168;4.124;2022-09-13T06:26:14;6.75;;;4.50;;
19535;SDS011;9913;51.168;4.124;2022-09-13T06:28:45;7.35;;;4.05;;
19535;SDS011;9913;51.168;4.124;2022-09-13T06:31:15;7.57;;;4.03;;
19535;SDS011;9913;51.168;4.124;2022-09-13T06:33:45;6.50;;;3.90;;
19535;SDS011;9913;51.168;4.124;2022-09-13T06:36:14;5.95;;;4.00;;
19535;SDS011;9913;51.168;4.124;2022-09-13T06:38:45;5.45;;;3.72;;
19535;SDS011;9913;51.168;4.124;2022-09-13T06:41:15;7.75;;;4.20;;
19535;SDS011;9913;51.168;4.124;2022-09-13T06:43:45;6.25;;;4.10;;
19535;SDS011;9913;51.168;4.124;2022-09-13T06:46:16;6.63;;;3.97;;
19535;SDS011;9913;51.168;4.124;2022-09-13T06:48:51;5.53;;;3.83;;
19535;SDS011;9913;51.168;4.124;2022-09-13T06:51:21;5.78;;;3.75;;
19535;SDS011;9913;51.168;4.124;2022-09-13T06:53:51;7.18;;;4.30;;
19535;SDS011;9913;51.168;4.124;2022-09-13T06:56:23;7.20;;;4.47;;
19535;SDS011;9913;51.168;4.124;2022-09-13T06:58:54;5.68;;;3.97;;
19535;SDS011;9913;51.168;4.124;2022-09-13T07:01:24;5.90;;;3.80;;
19535;SDS011;9913;51.168;4.124;2022-09-13T07:03:55;7.18;;;4.20;;
19535;SDS011;9913;51.168;4.124;2022-09-13T07:06:28;6.85;;;4.28;;
19535;SDS011;9913;51.168;4.124;2022-09-13T07:08:59;7.32;;;4.40;;
19535;SDS011;9913;51.168;4.124;2022-09-13T07:11:30;7.13;;;4.75;;
19535;SDS011;9913;51.168;4.124;2022-09-13T07:14:01;6.07;;;4.32;;
19535;SDS011;9913;51.168;4.124;2022-09-13T07:16:30;7.40;;;4.40;;
19535;SDS011;9913;51.168;4.124;2022-09-13T07:19:01;8.50;;;4.50;;
19535;SDS011;9913;51.168;4.124;2022-09-13T07:21:34;7.90;;;4.53;;
19535;SDS011;9913;51.168;4.124;2022-09-13T07:24:02;8.40;;;4.45;;
19535;SDS011;9913;51.168;4.124;2022-09-13T07:26:31;7.72;;;4.43;;
19535;SDS011;9913;51.168;4.124;2022-09-13T07:29:00;6.95;;;4.68;;
19535;SDS011;9913;51.168;4.124;2022-09-13T07:31:31;8.55;;;5.28;;
19535;SDS011;9913;51.168;4.124;2022-09-13T07:34:02;10.93;;;5.22;;
19535;SDS011;9913;51.168;4.124;2022-09-13T07:36:32;10.10;;;6.03;;
19535;SDS011;9913;51.168;4.124;2022-09-13T07:39:03;8.20;;;5.25;;
19535;SDS011;9913;51.168;4.124;2022-09-13T07:41:37;9.32;;;6.25;;
19535;SDS011;9913;51.168;4.124;2022-09-13T07:44:08;8.30;;;6.10;;
19535;SDS011;9913;51.168;4.124;2022-09-13T07:46:37;8.70;;;6.30;;
19535;SDS011;9913;51.168;4.124;2022-09-13T07:49:09;9.75;;;6.95;;
19535;SDS011;9913;51.168;4.124;2022-09-13T07:51:41;8.40;;;5.63;;
19535;SDS011;9913;51.168;4.124;2022-09-13T07:54:11;11.80;;;6.57;;
19535;SDS011;9913;51.168;4.124;2022-09-13T07:56:42;11.70;;;7.88;;
19535;SDS011;9913;51.168;4.124;2022-09-13T07:59:11;12.02;;;7.57;;
19535;SDS011;9913;51.168;4.124;2022-09-13T08:01:41;10.85;;;7.68;;
19535;SDS011;9913;51.168;4.124;2022-09-13T08:04:12;24.08;;;10.00;;
19535;SDS011;9913;51.168;4.124;2022-09-13T08:06:44;14.77;;;8.10;;
19535;SDS011;9913;51.168;4.124;2022-09-13T08:09:14;12.40;;;7.97;;
19535;SDS011;9913;51.168;4.124;2022-09-13T08:11:43;11.77;;;7.80;;
19535;SDS011;9913;51.168;4.124;2022-09-13T08:14:13;11.27;;;8.25;;
19535;SDS011;9913;51.168;4.124;2022-09-13T08:16:43;12.93;;;9.40;;
19535;SDS011;9913;51.168;4.124;2022-09-13T08:19:13;10.82;;;8.95;;
19535;SDS011;9913;51.168;4.124;2022-09-13T08:21:44;17.77;;;8.93;;
19535;SDS011;9913;51.168;4.124;2022-09-13T08:24:14;21.40;;;9.90;;
19535;SDS011;9913;51.168;4.124;2022-09-13T08:26:43;18.20;;;9.55;;
19535;SDS011;9913;51.168;4.124;2022-09-13T08:29:13;23.80;;;9.95;;
19535;SDS011;9913;51.168;4.124;2022-09-13T08:31:42;29.42;;;11.40;;
19535;SDS011;9913;51.168;4.124;2022-09-13T08:34:11;26.73;;;10.15;;
19535;SDS011;9913;51.168;4.124;2022-09-13T08:36:41;15.05;;;9.48;;
19535;SDS011;9913;51.168;4.124;2022-09-13T08:39:11;16.08;;;9.70;;
19535;SDS011;9913;51.168;4.124;2022-09-13T08:44:46;15.45;;;10.98;;
19535;SDS011;9913;51.168;4.124;2022-09-13T08:47:34;21.10;;;10.85;;
19535;SDS011;9913;51.168;4.124;2022-09-13T08:50:11;15.77;;;10.55;;
19535;SDS011;9913;51.168;4.124;2022-09-13T08:52:46;17.67;;;10.82;;
19535;SDS011;9913;51.168;4.124;2022-09-13T08:55:27;19.00;;;11.32;;
19535;SDS011;9913;51.168;4.124;2022-09-13T08:58:10;16.58;;;10.20;;
19535;SDS011;9913;51.168;4.124;2022-09-13T09:00:50;12.25;;;8.93;;
19535;SDS011;9913;51.168;4.124;2022-09-13T09:03:28;16.50;;;10.20;;
19535;SDS011;9913;51.168;4.124;2022-09-13T09:06:06;16.15;;;10.38;;
19535;SDS011;9913;51.168;4.124;2022-09-13T09:08:41;14.48;;;9.43;;
19535;SDS011;9913;51.168;4.124;2022-09-13T09:11:18;16.38;;;10.73;;
19535;SDS011;9913;51.168;4.124;2022-09-13T09:13:56;18.48;;;11.13;;
19535;SDS011;9913;51.168;4.124;2022-09-13T09:16:32;15.02;;;9.80;;
19535;SDS011;9913;51.168;4.124;2022-09-13T09:19:06;12.00;;;8.77;;
19535;SDS011;9913;51.168;4.124;2022-09-13T09:21:41;16.75;;;10.40;;
19535;SDS011;9913;51.168;4.124;2022-09-13T09:24:15;18.48;;;11.20;;
19535;SDS011;9913;51.168;4.124;2022-09-13T09:26:47;14.05;;;9.80;;
19535;SDS011;9913;51.168;4.124;2022-09-13T09:29:17;14.30;;;10.30;;
19535;SDS011;9913;51.168;4.124;2022-09-13T09:31:53;18.55;;;10.50;;
19535;SDS011;9913;51.168;4.124;2022-09-13T09:34:32;13.57;;;9.10;;
19535;SDS011;9913;51.168;4.124;2022-09-13T09:37:11;14.30;;;8.60;;
19535;SDS011;9913;51.168;4.124;2022-09-13T09:39:47;10.20;;;7.88;;
19535;SDS011;9913;51.168;4.124;2022-09-13T09:42:18;13.00;;;7.38;;
19535;SDS011;9913;51.168;4.124;2022-09-13T09:44:51;11.55;;;7.97;;
19535;SDS011;9913;51.168;4.124;2022-09-13T09:47:23;13.18;;;8.45;;
19535;SDS011;9913;51.168;4.124;2022-09-13T09:49:56;15.63;;;8.70;;
19535;SDS011;9913;51.168;4.124;2022-09-13T09:52:37;14.40;;;7.63;;
19535;SDS011;9913;51.168;4.124;2022-09-13T09:55:14;14.43;;;7.80;;
19535;SDS011;9913;51.168;4.124;2022-09-13T09:57:56;24.05;;;8.80;;
19535;SDS011;9913;51.168;4.124;2022-09-13T10:00:26;16.52;;;8.77;;
19535;SDS011;9913;51.168;4.124;2022-09-13T10:02:57;14.38;;;8.57;;
19535;SDS011;9913;51.168;4.124;2022-09-13T10:05:29;12.30;;;8.55;;
19535;SDS011;9913;51.168;4.124;2022-09-13T10:07:59;16.00;;;9.55;;
19535;SDS011;9913;51.168;4.124;2022-09-13T10:10:34;14.40;;;10.43;;
19535;SDS011;9913;51.168;4.124;2022-09-13T10:13:13;21.35;;;10.63;;
19535;SDS011;9913;51.168;4.124;2022-09-13T10:18:31;15.90;;;8.90;;
19535;SDS011;9913;51.168;4.124;2022-09-13T10:21:20;11.60;;;7.32;;
19535;SDS011;9913;51.168;4.124;2022-09-13T10:23:50;14.57;;;8.02;;
19535;SDS011;9913;51.168;4.124;2022-09-13T10:26:40;11.07;;;7.72;;
19535;SDS011;9913;51.168;4.124;2022-09-13T10:29:12;11.55;;;6.95;;
19535;SDS011;9913;51.168;4.124;2022-09-13T10:31:44;12.98;;;8.15;;
19535;SDS011;9913;51.168;4.124;2022-09-13T10:34:19;9.93;;;7.28;;
19535;SDS011;9913;51.168;4.124;2022-09-13T10:36:51;9.80;;;6.85;;
19535;SDS011;9913;51.168;4.124;2022-09-13T10:39:22;11.50;;;8.30;;
19535;SDS011;9913;51.168;4.124;2022-09-13T10:41:53;15.20;;;9.43;;
19535;SDS011;9913;51.168;4.124;2022-09-13T10:44:36;11.27;;;8.48;;
19535;SDS011;9913;51.168;4.124;2022-09-13T10:47:10;12.90;;;9.18;;
19535;SDS011;9913;51.168;4.124;2022-09-13T10:49:44;12.73;;;8.75;;
19535;SDS011;9913;51.168;4.124;2022-09-13T10:55:24;12.25;;;7.70;;
19535;SDS011;9913;51.168;4.124;2022-09-13T11:07:09;12.25;;;6.78;;
19535;SDS011;9913;51.168;4.124;2022-09-13T11:09:56;10.30;;;7.75;;
19535;SDS011;9913;51.168;4.124;2022-09-13T11:12:30;16.58;;;9.25;;
19535;SDS011;9913;51.168;4.124;2022-09-13T11:15:12;17.63;;;9.35;;
19535;SDS011;9913;51.168;4.124;2022-09-13T11:20:54;13.88;;;8.65;;
19535;SDS011;9913;51.168;4.124;2022-09-13T11:26:38;15.00;;;8.40;;
19535;SDS011;9913;51.168;4.124;2022-09-13T11:29:25;16.88;;;9.07;;
19535;SDS011;9913;51.168;4.124;2022-09-13T11:32:07;13.43;;;9.18;;
19535;SDS011;9913;51.168;4.124;2022-09-13T11:34:49;12.65;;;9.68;;
19535;SDS011;9913;51.168;4.124;2022-09-13T11:37:36;14.50;;;8.60;;
19535;SDS011;9913;51.168;4.124;2022-09-13T11:40:19;15.45;;;9.32;;
19535;SDS011;9913;51.168;4.124;2022-09-13T11:42:58;15.38;;;10.52;;
19535;SDS011;9913;51.168;4.124;2022-09-13T11:45:37;13.68;;;8.50;;
19535;SDS011;9913;51.168;4.124;2022-09-13T11:51:15;17.77;;;11.90;;
19535;SDS011;9913;51.168;4.124;2022-09-13T11:53:56;16.17;;;11.50;;
19535;SDS011;9913;51.168;4.124;2022-09-13T11:56:40;18.05;;;11.60;;
19535;SDS011;9913;51.168;4.124;2022-09-13T11:59:17;16.40;;;11.00;;
19535;SDS011;9913;51.168;4.124;2022-09-13T12:01:50;16.80;;;11.35;;
19535;SDS011;9913;51.168;4.124;2022-09-13T12:04:23;15.63;;;10.40;;
19535;SDS011;9913;51.168;4.124;2022-09-13T12:07:00;13.38;;;9.20;;
19535;SDS011;9913;51.168;4.124;2022-09-13T12:09:33;13.57;;;9.18;;
19535;SDS011;9913;51.168;4.124;2022-09-13T12:12:05;12.57;;;9.25;;
19535;SDS011;9913;51.168;4.124;2022-09-13T12:14:40;13.23;;;9.30;;
19535;SDS011;9913;51.168;4.124;2022-09-13T12:17:16;11.10;;;8.30;;
19535;SDS011;9913;51.168;4.124;2022-09-13T12:19:52;13.25;;;9.35;;
19535;SDS011;9913;51.168;4.124;2022-09-13T12:22:23;11.15;;;8.73;;
19535;SDS011;9913;51.168;4.124;2022-09-13T12:24:58;12.50;;;8.93;;
19535;SDS011;9913;51.168;4.124;2022-09-13T12:27:33;14.30;;;9.60;;
19535;SDS011;9913;51.168;4.124;2022-09-13T12:30:08;14.45;;;9.43;;
19535;SDS011;9913;51.168;4.124;2022-09-13T12:32:42;12.35;;;8.82;;
19535;SDS011;9913;51.168;4.124;2022-09-13T12:35:16;17.05;;;9.98;;
19535;SDS011;9913;51.168;4.124;2022-09-13T12:41:05;11.45;;;9.10;;
19535;SDS011;9913;51.168;4.124;2022-09-13T12:43:48;13.30;;;9.48;;
19535;SDS011;9913;51.168;4.124;2022-09-13T12:46:40;13.27;;;9.45;;
19535;SDS011;9913;51.168;4.124;2022-09-13T12:49:24;11.43;;;8.38;;
19535;SDS011;9913;51.168;4.124;2022-09-13T12:52:08;12.45;;;8.50;;
19535;SDS011;9913;51.168;4.124;2022-09-13T12:54:59;13.60;;;9.65;;
19535;SDS011;9913;51.168;4.124;2022-09-13T12:58:12;12.10;;;8.35;;
19535;SDS011;9913;51.168;4.124;2022-09-13T13:00:47;10.98;;;8.68;;
19535;SDS011;9913;51.168;4.124;2022-09-13T13:03:35;11.57;;;8.80;;
19535;SDS011;9913;51.168;4.124;2022-09-13T13:06:17;13.70;;;10.32;;
19535;SDS011;9913;51.168;4.124;2022-09-13T13:09:00;14.68;;;9.43;;
19535;SDS011;9913;51.168;4.124;2022-09-13T13:11:40;13.32;;;10.27;;
19535;SDS011;9913;51.168;4.124;2022-09-13T13:23:16;13.57;;;10.75;;
19535;SDS011;9913;51.168;4.124;2022-09-13T13:25:59;14.35;;;10.48;;
19535;SDS011;9913;51.168;4.124;2022-09-13T13:28:50;13.15;;;9.80;;
19535;SDS011;9913;51.168;4.124;2022-09-13T13:31:46;11.93;;;10.63;;
19535;SDS011;9913;51.168;4.124;2022-09-13T13:40:10;14.63;;;9.88;;
19535;SDS011;9913;51.168;4.124;2022-09-13T13:42:46;13.60;;;11.02;;
19535;SDS011;9913;51.168;4.124;2022-09-13T13:45:22;13.93;;;11.18;;
19535;SDS011;9913;51.168;4.124;2022-09-13T13:48:05;13.85;;;11.02;;
19535;SDS011;9913;51.168;4.124;2022-09-13T13:53:57;14.57;;;10.32;;
19535;SDS011;9913;51.168;4.124;2022-09-13T13:56:32;12.50;;;9.48;;
19535;SDS011;9913;51.168;4.124;2022-09-13T13:59:12;13.32;;;10.18;;
19535;SDS011;9913;51.168;4.124;2022-09-13T14:01:45;16.00;;;10.90;;
19535;SDS011;9913;51.168;4.124;2022-09-13T14:04:36;13.48;;;10.50;;
19535;SDS011;9913;51.168;4.124;2022-09-13T14:10:25;15.68;;;11.18;;
19535;SDS011;9913;51.168;4.124;2022-09-13T14:13:09;15.82;;;10.50;;
19535;SDS011;9913;51.168;4.124;2022-09-13T14:15:49;15.32;;;10.93;;
19535;SDS011;9913;51.168;4.124;2022-09-13T14:21:21;15.00;;;10.90;;
19535;SDS011;9913;51.168;4.124;2022-09-13T14:24:06;14.50;;;9.60;;
19535;SDS011;9913;51.168;4.124;2022-09-13T14:26:45;14.43;;;10.43;;
19535;SDS011;9913;51.168;4.124;2022-09-13T14:29:15;13.38;;;10.75;;
19535;SDS011;9913;51.168;4.124;2022-09-13T14:31:45;14.40;;;10.07;;
19535;SDS011;9913;51.168;4.124;2022-09-13T14:34:20;16.13;;;10.55;;
19535;SDS011;9913;51.168;4.124;2022-09-13T14:36:51;13.90;;;10.25;;
19535;SDS011;9913;51.168;4.124;2022-09-13T14:39:21;13.32;;;10.32;;
19535;SDS011;9913;51.168;4.124;2022-09-13T14:41:56;12.60;;;10.18;;
19535;SDS011;9913;51.168;4.124;2022-09-13T14:44:27;12.70;;;9.75;;
19535;SDS011;9913;51.168;4.124;2022-09-13T14:46:58;12.63;;;10.57;;
19535;SDS011;9913;51.168;4.124;2022-09-13T14:49:33;13.13;;;9.27;;
19535;SDS011;9913;51.168;4.124;2022-09-13T14:52:08;13.10;;;9.77;;
19535;SDS011;9913;51.168;4.124;2022-09-13T14:54:45;12.52;;;9.52;;
19535;SDS011;9913;51.168;4.124;2022-09-13T14:57:18;14.30;;;10.15;;
19535;SDS011;9913;51.168;4.124;2022-09-13T14:59:53;13.02;;;9.55;;
19535;SDS011;9913;51.168;4.124;2022-09-13T15:02:25;11.63;;;9.35;;
19535;SDS011;9913;51.168;4.124;2022-09-13T15:04:56;17.35;;;10.15;;
19535;SDS011;9913;51.168;4.124;2022-09-13T15:07:28;13.30;;;9.93;;
19535;SDS011;9913;51.168;4.124;2022-09-13T15:10:04;11.80;;;9.52;;
19535;SDS011;9913;51.168;4.124;2022-09-13T15:12:35;13.45;;;10.20;;
19535;SDS011;9913;51.168;4.124;2022-09-13T15:15:18;16.27;;;11.07;;
19535;SDS011;9913;51.168;4.124;2022-09-13T15:17:54;14.20;;;11.50;;
19535;SDS011;9913;51.168;4.124;2022-09-13T15:20:23;15.77;;;12.40;;
19535;SDS011;9913;51.168;4.124;2022-09-13T15:22:55;16.08;;;11.23;;
19535;SDS011;9913;51.168;4.124;2022-09-13T15:25:24;17.20;;;12.85;;
19535;SDS011;9913;51.168;4.124;2022-09-13T15:27:55;14.40;;;12.07;;
19535;SDS011;9913;51.168;4.124;2022-09-13T15:30:25;15.95;;;13.20;;
19535;SDS011;9913;51.168;4.124;2022-09-13T15:33:05;14.48;;;12.70;;
19535;SDS011;9913;51.168;4.124;2022-09-13T15:35:49;13.32;;;11.20;;
19535;SDS011;9913;51.168;4.124;2022-09-13T15:38:25;12.00;;;10.30;;
19535;SDS011;9913;51.168;4.124;2022-09-13T15:40:57;12.55;;;10.00;;
19535;SDS011;9913;51.168;4.124;2022-09-13T15:43:28;12.65;;;9.98;;
19535;SDS011;9913;51.168;4.124;2022-09-13T15:45:57;12.25;;;9.48;;
19535;SDS011;9913;51.168;4.124;2022-09-13T15:48:27;11.80;;;8.90;;
19535;SDS011;9913;51.168;4.124;2022-09-13T15:51:04;12.10;;;9.40;;
19535;SDS011;9913;51.168;4.124;2022-09-13T15:53:39;9.50;;;8.48;;
19535;SDS011;9913;51.168;4.124;2022-09-13T15:56:11;8.10;;;7.20;;
19535;SDS011;9913;51.168;4.124;2022-09-13T15:58:41;7.53;;;6.50;;
19535;SDS011;9913;51.168;4.124;2022-09-13T16:01:09;8.77;;;7.07;;
19535;SDS011;9913;51.168;4.124;2022-09-13T16:03:39;9.05;;;6.82;;
19535;SDS011;9913;51.168;4.124;2022-09-13T16:06:07;10.60;;;6.90;;
19535;SDS011;9913;51.168;4.124;2022-09-13T16:08:36;9.52;;;6.20;;
19535;SDS011;9913;51.168;4.124;2022-09-13T16:11:06;10.90;;;7.18;;
19535;SDS011;9913;51.168;4.124;2022-09-13T16:13:35;8.77;;;6.00;;
19535;SDS011;9913;51.168;4.124;2022-09-13T16:16:03;11.02;;;5.40;;
19535;SDS011;9913;51.168;4.124;2022-09-13T16:18:32;7.30;;;5.00;;
19535;SDS011;9913;51.168;4.124;2022-09-13T16:21:00;6.90;;;4.85;;
19535;SDS011;9913;51.168;4.124;2022-09-13T16:23:29;5.72;;;4.60;;
19535;SDS011;9913;51.168;4.124;2022-09-13T16:25:59;5.35;;;4.57;;
19535;SDS011;9913;51.168;4.124;2022-09-13T16:28:27;8.90;;;4.47;;
19535;SDS011;9913;51.168;4.124;2022-09-13T16:30:55;6.57;;;4.88;;